createdAt,value
2019-05-05T00:02:45.007Z,101117.36
2019-05-05T00:05:19.206Z,101117.36
2019-05-05T00:07:48.640Z,101120.16
2019-05-05T00:10:28.720Z,101119.75
2019-05-05T00:13:00.035Z,101121.59
2019-05-05T00:15:47.240Z,101115.94
2019-05-05T00:18:18.256Z,101125.65
2019-05-05T00:20:47.617Z,101132.63
2019-05-05T00:23:17.004Z,101128.57
2019-05-05T00:25:46.693Z,101128.50
2019-05-05T00:28:16.078Z,101123.08
2019-05-05T00:30:45.614Z,101124.70
2019-05-05T00:33:18.519Z,101125.04
2019-05-05T00:35:48.134Z,101122.72
2019-05-05T00:38:18.721Z,101127.19
2019-05-05T00:40:48.174Z,101127.63
2019-05-05T00:43:17.604Z,101126.81
2019-05-05T00:45:48.619Z,101129.95
2019-05-05T00:48:19.614Z,101127.30
2019-05-05T00:50:51.716Z,101129.06
2019-05-05T00:53:20.251Z,101127.88
2019-05-05T00:55:51.318Z,101134.63
2019-05-05T00:58:20.939Z,101137.80
2019-05-05T01:00:55.196Z,101131.81
2019-05-05T01:03:26.222Z,101136.86
2019-05-05T01:05:57.316Z,101139.63
2019-05-05T01:08:28.971Z,101144.19
2019-05-05T01:10:58.711Z,101142.12
2019-05-05T01:13:28.075Z,101147.36
2019-05-05T01:15:57.733Z,101143.78
2019-05-05T01:18:27.109Z,101152.58
2019-05-05T01:20:56.700Z,101149.00
2019-05-05T01:23:27.039Z,101146.16
2019-05-05T01:25:56.698Z,101142.92
2019-05-05T01:28:27.110Z,101140.20
2019-05-05T01:30:58.526Z,101141.34
2019-05-05T01:33:34.389Z,101145.56
2019-05-05T01:36:04.672Z,101148.45
2019-05-05T01:38:36.015Z,101140.74
2019-05-05T01:41:16.058Z,101137.50
2019-05-05T01:43:45.714Z,101147.47
2019-05-05T01:46:16.060Z,101150.02
2019-05-05T01:48:45.752Z,101144.63
2019-05-05T01:51:15.128Z,101146.73
2019-05-05T01:53:44.770Z,101145.78
2019-05-05T01:56:15.374Z,101148.80
2019-05-05T01:58:45.197Z,101153.13
2019-05-05T02:01:15.328Z,101151.73
2019-05-05T02:03:45.343Z,101158.67
2019-05-05T02:06:14.763Z,101156.80
2019-05-05T02:08:45.435Z,101162.08
2019-05-05T02:11:15.650Z,101154.88
2019-05-05T02:13:45.173Z,101156.16
2019-05-05T02:16:15.105Z,101152.03
2019-05-05T02:18:45.159Z,101157.71
2019-05-05T02:21:15.826Z,101155.05
2019-05-05T02:23:45.392Z,101147.41
2019-05-05T02:26:15.423Z,101150.06
2019-05-05T02:29:05.886Z,101156.75
2019-05-05T02:31:55.118Z,101154.46
2019-05-05T02:34:25.663Z,101159.70
2019-05-05T02:36:56.479Z,101164.95
2019-05-05T02:39:27.182Z,101161.45
2019-05-05T02:41:57.395Z,101169.76
2019-05-05T02:44:27.489Z,101169.76
2019-05-05T02:47:17.782Z,101173.27
2019-05-05T02:49:47.145Z,101171.50
2019-05-05T02:52:18.170Z,101173.75
2019-05-05T02:54:49.115Z,101164.11
2019-05-05T02:57:19.440Z,101165.14
2019-05-05T02:59:51.091Z,101169.72
2019-05-05T03:02:25.208Z,101170.65
2019-05-05T03:04:54.861Z,101166.73
2019-05-05T03:07:26.138Z,101164.18
2019-05-05T03:09:56.122Z,101168.73
2019-05-05T03:12:25.658Z,101174.08
2019-05-05T03:14:56.486Z,101175.08
2019-05-05T03:17:27.334Z,101170.83
2019-05-05T03:19:56.995Z,101181.64
2019-05-05T03:22:27.603Z,101183.67
2019-05-05T03:24:56.964Z,101182.04
2019-05-05T03:27:27.282Z,101184.84
2019-05-05T03:29:57.179Z,101186.69
2019-05-05T03:32:27.325Z,101187.61
2019-05-05T03:34:57.096Z,101181.10
2019-05-05T03:37:27.333Z,101183.80
2019-05-05T03:39:58.554Z,101195.42
2019-05-05T03:42:30.820Z,101192.42
2019-05-05T03:45:04.039Z,101196.48
2019-05-05T03:47:33.804Z,101195.73
2019-05-05T03:50:05.448Z,101198.09
2019-05-05T03:52:36.352Z,101189.06
2019-05-05T03:55:08.700Z,101205.38
2019-05-05T03:57:38.846Z,101201.16
2019-05-05T04:00:08.474Z,101206.17
2019-05-05T04:02:48.510Z,101208.59
2019-05-05T04:05:19.740Z,101203.47
2019-05-05T04:07:49.122Z,101204.49
2019-05-05T04:10:18.468Z,101202.89
2019-05-05T04:12:48.516Z,101213.04
2019-05-05T04:15:19.021Z,101209.56
2019-05-05T04:17:50.031Z,101213.14
2019-05-05T04:20:21.085Z,101215.35
2019-05-05T04:22:50.472Z,101207.83
2019-05-05T04:25:20.103Z,101220.66
2019-05-05T04:27:49.480Z,101218.92
2019-05-05T04:30:19.045Z,101220.66
2019-05-05T04:32:48.678Z,101223.67
2019-05-05T04:35:18.205Z,101226.59
2019-05-05T04:37:47.571Z,101237.06
2019-05-05T04:40:17.204Z,101235.56
2019-05-05T04:42:46.574Z,101248.11
2019-05-05T04:45:16.209Z,101238.13
2019-05-05T04:47:59.031Z,101242.80
2019-05-05T04:50:34.511Z,101237.38
2019-05-05T04:53:08.426Z,101246.00
2019-05-05T04:55:38.132Z,101242.70
2019-05-05T04:58:07.515Z,101253.16
2019-05-05T05:00:37.124Z,101251.14
2019-05-05T05:03:09.207Z,101252.16
2019-05-05T05:05:55.846Z,101254.06
2019-05-05T05:08:25.478Z,101256.03
2019-05-05T05:10:55.145Z,101250.95
2019-05-05T05:13:24.706Z,101260.41
2019-05-05T05:15:54.166Z,101266.37
2019-05-05T05:18:24.202Z,101272.70
2019-05-05T05:20:54.816Z,101272.74
2019-05-05T05:23:24.788Z,101279.55
2019-05-05T05:25:54.643Z,101276.92
2019-05-05T05:28:24.225Z,101292.34
2019-05-05T05:30:54.612Z,101289.97
2019-05-05T05:33:25.183Z,101286.33
2019-05-05T05:35:54.791Z,101294.86
2019-05-05T05:38:24.763Z,101299.48
2019-05-05T05:40:58.795Z,101291.53
2019-05-05T05:43:30.094Z,101295.02
2019-05-05T05:46:04.436Z,101293.87
2019-05-05T05:48:35.792Z,101293.78
2019-05-05T05:51:06.832Z,101298.47
2019-05-05T05:53:36.860Z,101308.23
2019-05-05T05:56:06.287Z,101299.75
2019-05-05T05:58:35.917Z,101300.88
2019-05-05T06:01:06.313Z,101306.19
2019-05-05T06:03:35.963Z,101310.11
2019-05-05T06:06:06.954Z,101313.28
2019-05-05T06:08:36.615Z,101313.33
2019-05-05T06:11:08.590Z,101321.67
2019-05-05T06:13:38.511Z,101322.52
2019-05-05T06:16:08.143Z,101324.08
2019-05-05T06:18:37.525Z,101322.30
2019-05-05T06:21:07.198Z,101324.88
2019-05-05T06:23:36.852Z,101328.09
2019-05-05T06:26:07.217Z,101326.39
2019-05-05T06:28:36.845Z,101324.97
2019-05-05T06:31:06.276Z,101329.41
2019-05-05T06:33:35.658Z,101331.14
2019-05-05T06:36:05.358Z,101329.89
2019-05-05T06:38:35.032Z,101329.42
2019-05-05T06:41:06.056Z,101335.56
2019-05-05T06:43:37.195Z,101337.94
2019-05-05T06:46:11.129Z,101340.75
2019-05-05T06:48:40.836Z,101340.20
2019-05-05T06:51:10.331Z,101343.44
2019-05-05T06:53:39.685Z,101346.98
2019-05-05T06:56:09.360Z,101360.16
2019-05-05T06:58:38.863Z,101360.16
2019-05-05T07:01:08.391Z,101348.39
2019-05-05T07:03:37.761Z,101348.39
2019-05-05T07:06:07.627Z,101360.64
2019-05-05T07:08:37.615Z,101360.64
2019-05-05T07:11:07.319Z,101364.36
2019-05-05T07:13:36.912Z,101362.13
2019-05-05T07:16:06.389Z,101360.59
2019-05-05T07:18:35.761Z,101360.59
2019-05-05T07:21:05.457Z,101363.27
2019-05-05T07:23:34.990Z,101363.27
2019-05-05T07:26:05.961Z,101363.27
2019-05-05T07:28:35.664Z,101363.27
2019-05-05T07:31:05.400Z,101365.05
2019-05-05T07:33:34.860Z,101362.13
2019-05-05T07:36:22.103Z,101371.41
2019-05-05T07:38:51.456Z,101371.41
2019-05-05T07:41:20.841Z,101376.27
2019-05-05T07:43:50.520Z,101384.16
2019-05-05T07:46:19.886Z,101384.16
2019-05-05T07:48:49.442Z,101385.38
2019-05-05T07:51:19.071Z,101385.38
2019-05-05T07:53:48.428Z,101392.17
2019-05-05T07:56:17.879Z,101390.42
2019-05-05T07:58:47.843Z,101393.97
2019-05-05T08:01:17.509Z,101393.75
2019-05-05T08:03:46.868Z,101393.75
2019-05-05T08:06:16.720Z,101388.38
2019-05-05T08:08:46.083Z,101388.38
2019-05-05T08:11:15.628Z,101397.17
2019-05-05T08:13:45.245Z,101397.17
2019-05-05T08:16:24.257Z,101393.78
2019-05-05T08:18:55.258Z,101391.68
2019-05-05T08:21:24.635Z,101393.34
2019-05-05T08:23:58.519Z,101388.32
2019-05-05T08:26:33.687Z,101392.65
2019-05-05T08:29:05.663Z,101399.87
2019-05-05T08:31:48.551Z,101395.66
2019-05-05T08:34:17.924Z,101396.51
2019-05-05T08:36:47.567Z,101394.65
2019-05-05T08:39:16.945Z,101394.65
2019-05-05T08:41:47.448Z,101395.60
2019-05-05T08:44:18.134Z,101398.77
2019-05-05T08:46:47.725Z,101399.37
2019-05-05T08:49:17.083Z,101399.37
2019-05-05T08:51:46.588Z,101396.23
2019-05-05T08:54:15.948Z,101394.06
2019-05-05T08:56:45.836Z,101399.84
2019-05-05T08:59:15.200Z,101395.94
2019-05-05T09:01:45.047Z,101398.08
2019-05-05T09:04:14.625Z,101395.81
2019-05-05T09:06:44.260Z,101394.56
2019-05-05T09:09:14.464Z,101399.73
2019-05-05T09:11:44.175Z,101396.09
2019-05-05T09:14:14.905Z,101390.16
2019-05-05T09:16:44.938Z,101390.16
2019-05-05T09:19:23.968Z,101392.67
2019-05-05T09:21:54.143Z,101388.17
2019-05-05T09:24:38.509Z,101381.22
2019-05-05T09:27:28.345Z,101385.34
2019-05-05T09:29:57.835Z,101378.20
2019-05-05T09:32:28.347Z,101379.94
2019-05-05T09:34:57.792Z,101374.64
2019-05-05T09:37:28.581Z,101379.04
2019-05-05T09:39:57.970Z,101381.12
2019-05-05T09:42:28.021Z,101375.17
2019-05-05T09:44:57.654Z,101383.72
2019-05-05T09:47:27.969Z,101385.13
2019-05-05T09:49:57.632Z,101391.94
2019-05-05T09:52:28.133Z,101388.73
2019-05-05T09:54:57.733Z,101399.13
2019-05-05T09:57:28.032Z,101410.03
2019-05-05T09:59:59.602Z,101417.79
2019-05-05T10:02:29.264Z,101419.73
2019-05-05T10:04:58.787Z,101415.94
2019-05-05T10:07:28.182Z,101415.94
2019-05-05T10:09:57.751Z,101420.91
2019-05-05T10:12:28.050Z,101420.15
2019-05-05T10:14:57.709Z,101416.21
2019-05-05T10:17:28.601Z,101410.05
2019-05-05T10:19:58.446Z,101413.47
2019-05-05T10:22:28.198Z,101406.20
2019-05-05T10:25:15.615Z,101407.05
2019-05-05T10:27:47.688Z,101405.30
2019-05-05T10:30:16.061Z,101410.56
2019-05-05T10:32:47.028Z,101411.19
2019-05-05T10:35:16.391Z,101413.13
2019-05-05T10:37:46.062Z,101405.78
2019-05-05T10:40:17.370Z,101415.80
2019-05-05T10:42:49.553Z,101412.03
2019-05-05T10:45:20.157Z,101405.19
2019-05-05T10:47:50.577Z,101405.38
2019-05-05T10:50:20.225Z,101406.42
2019-05-05T10:52:50.877Z,101401.97
2019-05-05T10:55:20.314Z,101403.95
2019-05-05T10:57:49.760Z,101406.72
2019-05-05T11:00:39.705Z,101401.52
2019-05-05T11:03:09.106Z,101400.83
2019-05-05T11:05:38.831Z,101400.48
2019-05-05T11:08:08.283Z,101402.78
2019-05-05T11:10:38.153Z,101407.16
2019-05-05T11:13:09.184Z,101405.08
2019-05-05T11:15:38.868Z,101411.27
2019-05-05T11:18:08.507Z,101413.34
2019-05-05T11:20:37.893Z,101423.53
2019-05-05T11:23:07.349Z,101415.42
2019-05-05T11:25:37.002Z,101434.23
2019-05-05T11:28:09.149Z,101439.63
2019-05-05T11:30:40.842Z,101436.95
2019-05-05T11:33:11.846Z,101440.52
2019-05-05T11:35:44.408Z,101444.81
2019-05-05T11:38:14.230Z,101453.12
2019-05-05T11:40:44.088Z,101447.43
2019-05-05T11:43:14.288Z,101439.59
2019-05-05T11:45:44.100Z,101430.49
2019-05-05T11:48:14.823Z,101439.53
2019-05-05T11:50:44.368Z,101431.05
2019-05-05T11:53:14.582Z,101435.20
2019-05-05T11:55:44.487Z,101432.45
2019-05-05T11:58:14.567Z,101438.15
2019-05-05T12:00:44.059Z,101443.23
2019-05-05T12:03:14.592Z,101440.30
2019-05-05T12:05:45.193Z,101445.62
2019-05-05T12:08:14.917Z,101445.62
2019-05-05T12:10:45.968Z,101450.42
2019-05-05T12:13:15.327Z,101445.60
2019-05-05T12:15:46.644Z,101440.43
2019-05-05T12:18:16.060Z,101440.43
2019-05-05T12:20:46.431Z,101439.96
2019-05-05T12:23:15.960Z,101433.92
2019-05-05T12:25:50.115Z,101423.40
2019-05-05T12:28:30.462Z,101430.90
2019-05-05T12:31:04.985Z,101428.30
2019-05-05T12:33:34.387Z,101434.83
2019-05-05T12:36:04.524Z,101425.11
2019-05-05T12:38:34.847Z,101428.58
2019-05-05T12:41:04.494Z,101427.20
2019-05-05T12:43:35.140Z,101429.47
2019-05-05T12:46:13.761Z,101442.03
2019-05-05T12:48:44.920Z,101445.56
2019-05-05T12:51:14.771Z,101453.09
2019-05-05T12:53:44.389Z,101447.17
2019-05-05T12:56:14.641Z,101460.42
2019-05-05T12:58:44.299Z,101457.96
2019-05-05T13:01:21.153Z,101450.81
2019-05-05T13:03:50.516Z,101459.91
2019-05-05T13:06:20.078Z,101455.70
2019-05-05T13:08:49.457Z,101463.94
2019-05-05T13:11:20.222Z,101460.12
2019-05-05T13:13:49.885Z,101458.02
2019-05-05T13:16:22.236Z,101452.46
2019-05-05T13:18:50.638Z,101440.55
2019-05-05T13:21:38.141Z,101449.30
2019-05-05T13:24:27.969Z,101453.80
2019-05-05T13:26:58.983Z,101454.01
2019-05-05T13:29:28.589Z,101445.52
2019-05-05T13:31:58.136Z,101449.55
2019-05-05T13:34:28.479Z,101454.13
2019-05-05T13:36:58.108Z,101449.48
2019-05-05T13:39:28.437Z,101443.74
2019-05-05T13:41:57.817Z,101443.74
2019-05-05T13:44:45.087Z,101436.55
2019-05-05T13:47:17.671Z,101430.66
2019-05-05T13:49:47.119Z,101424.58
2019-05-05T13:52:16.748Z,101426.03
2019-05-05T13:54:46.421Z,101423.75
2019-05-05T13:57:16.107Z,101414.23
2019-05-05T13:59:45.757Z,101405.73
2019-05-05T14:02:15.626Z,101397.67
2019-05-05T14:04:45.581Z,101405.02
2019-05-05T14:07:15.271Z,101405.19
2019-05-05T14:09:44.977Z,101396.37
2019-05-05T14:12:14.739Z,101397.54
2019-05-05T14:14:44.641Z,101391.41
2019-05-05T14:17:14.798Z,101393.86
2019-05-05T14:19:44.677Z,101388.85
2019-05-05T14:22:14.224Z,101400.67
2019-05-05T14:25:01.494Z,101405.03
2019-05-05T14:27:31.183Z,101412.55
2019-05-05T14:30:04.027Z,101418.47
2019-05-05T14:32:35.132Z,101410.72
2019-05-05T14:35:10.664Z,101412.94
2019-05-05T14:37:44.702Z,101409.42
2019-05-05T14:40:14.930Z,101409.42
2019-05-05T14:42:44.526Z,101417.35
2019-05-05T14:45:15.337Z,101419.67
2019-05-05T14:47:46.401Z,101416.30
2019-05-05T14:50:15.865Z,101419.95
2019-05-05T14:52:45.307Z,101409.86
2019-05-05T14:55:16.003Z,101412.66
2019-05-05T14:57:46.031Z,101412.41
2019-05-05T15:00:17.274Z,101414.98
2019-05-05T15:02:46.817Z,101421.58
2019-05-05T15:09:06.715Z,101419.13
2019-05-05T15:11:45.689Z,101413.34
2019-05-05T15:14:15.072Z,101412.25
2019-05-05T15:16:44.728Z,101410.98
2019-05-05T15:19:14.584Z,101411.37
2019-05-05T15:21:44.894Z,101411.78
2019-05-05T15:24:14.582Z,101410.48
2019-05-05T15:26:51.786Z,101413.49
2019-05-05T15:29:15.025Z,101407.63
2019-05-05T15:31:44.716Z,101412.69
2019-05-05T15:34:14.429Z,101401.38
2019-05-05T15:36:44.137Z,101411.59
2019-05-05T15:39:13.924Z,101402.51
2019-05-05T15:41:44.604Z,101407.97
2019-05-05T15:44:14.045Z,101413.77
2019-05-05T15:46:44.194Z,101405.03
2019-05-05T15:49:13.717Z,101405.03
2019-05-05T15:51:44.292Z,101404.75
2019-05-05T15:54:14.137Z,101413.46
2019-05-05T15:56:43.787Z,101422.07
2019-05-05T15:59:14.353Z,101419.23
2019-05-05T16:01:43.932Z,101418.42
2019-05-05T16:04:14.102Z,101428.80
2019-05-05T16:06:45.160Z,101424.25
2019-05-05T16:09:14.867Z,101423.27
2019-05-05T16:11:46.746Z,101426.36
2019-05-05T16:14:15.591Z,101426.48
2019-05-05T16:17:03.883Z,101426.48
2019-05-05T16:19:46.550Z,101424.98
2019-05-05T16:22:25.394Z,101417.73
2019-05-05T16:25:14.229Z,101417.97
2019-05-05T16:27:44.585Z,101421.05
2019-05-05T16:30:15.857Z,101418.10
2019-05-05T16:32:45.451Z,101412.31
2019-05-05T16:35:14.977Z,101416.25
2019-05-05T16:37:44.649Z,101422.49
2019-05-05T16:40:15.308Z,101422.49
2019-05-05T16:42:44.958Z,101418.22
2019-05-05T16:45:16.491Z,101418.22
2019-05-05T16:47:47.190Z,101427.55
2019-05-05T16:50:16.876Z,101425.36
2019-05-05T16:52:47.896Z,101418.34
2019-05-05T16:55:18.926Z,101418.97
2019-05-05T16:57:48.286Z,101432.20
2019-05-05T17:00:18.313Z,101434.50
2019-05-05T17:02:47.889Z,101429.91
2019-05-05T17:05:17.352Z,101432.99
2019-05-05T17:07:47.008Z,101431.05
2019-05-05T17:10:17.023Z,101431.05
2019-05-05T17:12:46.437Z,101440.55
2019-05-05T17:15:35.364Z,101440.98
2019-05-05T17:18:32.878Z,101439.89
2019-05-05T17:21:13.452Z,101443.37
2019-05-05T17:23:43.542Z,101441.67
2019-05-05T17:26:14.364Z,101438.83
2019-05-05T17:28:44.451Z,101436.52
2019-05-05T17:31:13.880Z,101440.31
2019-05-05T17:33:44.751Z,101445.44
2019-05-05T17:36:14.150Z,101445.84
2019-05-05T17:38:43.872Z,101445.97
2019-05-05T17:41:17.814Z,101447.96
2019-05-05T17:43:48.888Z,101452.20
2019-05-05T17:46:19.910Z,101454.20
2019-05-05T17:48:50.922Z,101451.53
2019-05-05T17:51:39.738Z,101453.81
2019-05-05T17:54:28.327Z,101451.70
2019-05-05T17:56:57.954Z,101454.98
2019-05-05T17:59:27.588Z,101452.70
2019-05-05T18:01:56.971Z,101454.37
2019-05-05T18:04:26.333Z,101443.89
2019-05-05T18:07:04.505Z,101451.91
2019-05-05T18:09:53.795Z,101447.67
2019-05-05T18:12:25.950Z,101451.53
2019-05-05T18:14:56.956Z,101453.87
2019-05-05T18:17:26.351Z,101452.17
2019-05-05T18:19:55.959Z,101447.89
2019-05-05T18:22:25.339Z,101450.31
2019-05-05T18:24:54.904Z,101461.11
2019-05-05T18:27:24.289Z,101458.94
2019-05-05T18:29:54.551Z,101463.27
2019-05-05T18:32:24.021Z,101465.77
2019-05-05T18:34:54.514Z,101470.66
2019-05-05T18:37:25.029Z,101472.77
2019-05-05T18:39:54.724Z,101470.15
2019-05-05T18:42:24.954Z,101467.20
2019-05-05T18:44:57.187Z,101473.28
2019-05-05T18:47:26.844Z,101467.72
2019-05-05T18:49:56.218Z,101470.64
2019-05-05T18:52:25.881Z,101469.38
2019-05-05T18:54:55.253Z,101475.16
2019-05-05T18:57:26.165Z,101471.69
2019-05-05T18:59:55.796Z,101473.70
2019-05-05T19:02:41.717Z,101473.14
2019-05-05T19:05:23.746Z,101471.69
2019-05-05T19:08:04.599Z,101476.58
2019-05-05T19:10:35.490Z,101478.20
2019-05-05T19:13:05.388Z,101488.86
2019-05-05T19:15:35.286Z,101488.00
2019-05-05T19:18:06.602Z,101481.84
2019-05-05T19:20:40.582Z,101492.83
2019-05-05T19:23:10.040Z,101492.16
2019-05-05T19:25:39.418Z,101491.19
2019-05-05T19:28:09.058Z,101499.54
2019-05-05T19:30:38.771Z,101499.54
2019-05-05T19:33:08.191Z,101498.59
2019-05-05T19:35:43.995Z,101501.56
2019-05-05T19:38:08.986Z,101497.04
2019-05-05T19:40:38.810Z,101510.09
2019-05-05T19:43:08.205Z,101508.39
2019-05-05T19:45:37.569Z,101507.77
2019-05-05T19:48:07.186Z,101510.73
2019-05-05T19:50:41.098Z,101510.55
2019-05-05T19:53:24.544Z,101512.55
2019-05-05T19:55:54.811Z,101514.63
2019-05-05T19:58:24.227Z,101508.77
2019-05-05T20:00:55.241Z,101510.28
2019-05-05T20:03:24.892Z,101516.02
2019-05-05T20:05:54.332Z,101515.80
2019-05-05T20:08:24.146Z,101519.90
2019-05-05T20:10:54.299Z,101525.80
2019-05-05T20:13:23.991Z,101522.98
2019-05-05T20:16:04.523Z,101521.11
2019-05-05T20:18:34.383Z,101520.63
2019-05-05T20:21:07.205Z,101523.33
2019-05-05T20:23:36.036Z,101525.28
2019-05-05T20:26:05.416Z,101521.46
2019-05-05T20:28:35.076Z,101529.13
2019-05-05T20:31:04.440Z,101529.97
2019-05-05T20:33:44.564Z,101536.22
2019-05-05T20:36:18.747Z,101536.47
2019-05-05T20:38:49.984Z,101536.47
2019-05-05T20:41:20.966Z,101538.15
2019-05-05T20:43:50.586Z,101535.72
2019-05-05T20:46:20.423Z,101536.69
2019-05-05T20:48:50.087Z,101536.69
2019-05-05T20:51:19.450Z,101547.73
2019-05-05T20:53:49.441Z,101546.20
2019-05-05T20:56:19.103Z,101548.19
2019-05-05T20:58:48.475Z,101550.22
2019-05-05T21:01:18.190Z,101550.38
2019-05-05T21:03:47.810Z,101550.38
2019-05-05T21:06:17.293Z,101549.13
2019-05-05T21:08:46.943Z,101545.25
2019-05-05T21:11:16.299Z,101548.11
2019-05-05T21:13:45.959Z,101546.61
2019-05-05T21:16:15.315Z,101538.80
2019-05-05T21:18:44.986Z,101546.98
2019-05-05T21:21:16.049Z,101541.41
2019-05-05T21:23:47.203Z,101549.67
2019-05-05T21:26:21.167Z,101544.00
2019-05-05T21:28:50.560Z,101554.37
2019-05-05T21:31:20.483Z,101552.23
2019-05-05T21:33:50.428Z,101552.23
2019-05-05T21:36:20.761Z,101554.68
2019-05-05T21:38:50.417Z,101553.08
2019-05-05T21:41:19.769Z,101548.84
2019-05-05T21:43:49.591Z,101554.02
2019-05-05T21:46:19.261Z,101547.14
2019-05-05T21:48:49.673Z,101550.05
2019-05-05T21:51:24.017Z,101550.66
2019-05-05T21:53:57.724Z,101552.63
2019-05-05T21:56:36.996Z,101548.20
2019-05-05T21:59:06.628Z,101549.13
2019-05-05T22:01:39.477Z,101552.34
2019-05-05T22:04:07.449Z,101546.67
2019-05-05T22:06:37.106Z,101547.30
2019-05-05T22:09:07.623Z,101551.44
2019-05-05T22:11:38.859Z,101548.53
2019-05-05T22:14:08.384Z,101551.47
2019-05-05T22:16:37.740Z,101548.55
2019-05-05T22:19:08.030Z,101546.17
2019-05-05T22:21:39.233Z,101551.17
2019-05-05T22:24:16.128Z,101549.06
2019-05-05T22:26:45.969Z,101547.37
2019-05-05T22:29:17.047Z,101546.59
2019-05-05T22:31:46.608Z,101545.80
2019-05-05T22:34:16.046Z,101545.47
2019-05-05T22:36:45.746Z,101543.41
2019-05-05T22:39:16.987Z,101534.19
2019-05-05T22:41:46.659Z,101540.67
2019-05-05T22:44:16.322Z,101536.06
2019-05-05T22:46:46.144Z,101541.57
2019-05-05T22:49:15.536Z,101540.84
2019-05-05T22:51:44.978Z,101538.30
2019-05-05T22:54:15.624Z,101533.64
2019-05-05T22:56:45.272Z,101533.64
2019-05-05T22:59:14.643Z,101540.45
2019-05-05T23:01:44.327Z,101538.87
2019-05-05T23:04:34.977Z,101548.42
2019-05-05T23:07:11.796Z,101544.86
2019-05-05T23:09:44.366Z,101541.94
2019-05-05T23:12:14.757Z,101544.01
2019-05-05T23:14:44.425Z,101546.06
2019-05-05T23:17:18.331Z,101533.92
2019-05-05T23:19:55.248Z,101539.94
2019-05-05T23:22:44.241Z,101529.53
2019-05-05T23:25:18.048Z,101533.17
2019-05-05T23:27:48.194Z,101532.84
2019-05-05T23:30:18.893Z,101531.15
2019-05-05T23:32:48.540Z,101531.27
2019-05-05T23:35:18.089Z,101536.20
2019-05-05T23:37:49.556Z,101530.61
2019-05-05T23:40:24.577Z,101537.48
2019-05-05T23:42:54.612Z,101536.22
2019-05-05T23:45:24.779Z,101536.26
2019-05-05T23:47:55.815Z,101530.14
2019-05-05T23:50:25.481Z,101536.86
2019-05-05T23:52:54.934Z,101531.11
2019-05-05T23:55:24.555Z,101533.97
2019-05-05T23:57:55.053Z,101525.30
